createdAt,value
2022-10-28T09:00:25.716Z,100856.91
2022-10-28T09:03:12.275Z,100861.84
2022-10-28T09:05:42.589Z,100868.41
2022-10-28T09:08:22.373Z,100869.72
2022-10-28T09:11:17.701Z,100856.28
2022-10-28T09:13:48.631Z,100858.81
2022-10-28T09:16:28.787Z,100852.94
2022-10-28T09:18:58.979Z,100856.19
2022-10-28T09:21:53.092Z,100868.28
2022-10-28T09:24:27.511Z,100867.94
2022-10-28T09:27:01.590Z,100858.03
2022-10-28T09:29:54.119Z,100864.75
2022-10-28T09:32:37.404Z,100871.13
2022-10-28T09:35:36.463Z,100860.00
2022-10-28T09:38:16.229Z,100859.06
2022-10-28T09:40:55.027Z,100848.31
2022-10-28T09:43:28.307Z,100853.78
2022-10-28T09:46:20.748Z,100839.47
2022-10-28T09:48:56.201Z,100853.63
2022-10-28T09:51:32.530Z,100852.97
2022-10-28T09:54:01.367Z,100853.22
2022-10-28T09:56:30.731Z,100851.59
2022-10-28T09:59:02.018Z,100849.66
2022-10-28T10:01:32.578Z,100864.28
2022-10-28T10:04:01.478Z,100859.88
2022-10-28T10:06:36.461Z,100848.09
2022-10-28T10:09:05.291Z,100851.22
2022-10-28T10:11:38.987Z,100844.94
2022-10-28T10:14:12.034Z,100842.06
2022-10-28T10:16:48.925Z,100840.28
2022-10-28T10:19:17.234Z,100846.66
2022-10-28T10:21:51.240Z,100842.16
2022-10-28T10:24:35.370Z,100842.19
2022-10-28T10:27:19.347Z,100851.31
2022-10-28T10:29:51.104Z,100845.63
2022-10-28T10:32:25.066Z,100842.06
2022-10-28T10:35:04.713Z,100842.66
2022-10-28T10:37:36.372Z,100830.28
2022-10-28T10:40:22.929Z,100829.59
2022-10-28T10:43:12.925Z,100839.72
2022-10-28T10:45:59.293Z,100830.22
2022-10-28T10:48:29.314Z,100830.69
2022-10-28T10:50:57.630Z,100837.16
2022-10-28T10:53:27.572Z,100823.47
2022-10-28T10:56:01.786Z,100824.97
2022-10-28T10:58:37.588Z,100818.94
2022-10-28T11:01:07.716Z,100822.22
2022-10-28T11:03:48.295Z,100830.66
2022-10-28T11:06:26.399Z,100835.22
2022-10-28T11:09:01.282Z,100834.31
2022-10-28T11:11:40.507Z,100824.66
2022-10-28T11:14:11.657Z,100822.31
2022-10-28T11:16:57.161Z,100818.50
2022-10-28T11:19:36.716Z,100816.56
2022-10-28T11:22:33.707Z,100823.97
2022-10-28T11:25:17.044Z,100820.53
2022-10-28T11:28:09.644Z,100808.69
2022-10-28T11:35:03.317Z,100802.16
2022-10-28T11:37:55.382Z,100790.13
2022-10-28T11:41:11.212Z,100780.09
2022-10-28T11:43:59.676Z,100789.19
2022-10-28T11:46:48.806Z,100787.13
2022-10-28T11:49:40.372Z,100784.19
2022-10-28T11:52:23.278Z,100786.47
2022-10-28T11:55:12.986Z,100798.78
2022-10-28T12:01:22.186Z,100782.75
2022-10-28T12:04:14.266Z,100775.13
2022-10-28T12:07:10.412Z,100776.25
2022-10-28T12:09:57.860Z,100771.91
2022-10-28T12:12:41.299Z,100766.00
2022-10-28T12:15:09.524Z,100771.19
2022-10-28T12:17:57.712Z,100757.56
2022-10-28T12:20:52.782Z,100753.88
2022-10-28T12:23:23.614Z,100759.66
2022-10-28T12:25:55.837Z,100760.56
2022-10-28T12:28:45.756Z,100757.03
2022-10-28T12:31:24.577Z,100755.56
2022-10-28T12:33:57.480Z,100750.16
2022-10-28T12:36:45.240Z,100756.06
2022-10-28T12:39:25.564Z,100744.94
2022-10-28T12:42:28.862Z,100744.94
2022-10-28T12:44:59.134Z,100744.59
2022-10-28T12:47:49.223Z,100744.75
2022-10-28T12:50:42.338Z,100741.13
2022-10-28T12:53:16.186Z,100743.09
2022-10-28T12:55:50.482Z,100747.53
2022-10-28T12:58:31.472Z,100740.69
2022-10-28T13:01:09.291Z,100737.13
2022-10-28T13:03:37.637Z,100739.63
2022-10-28T13:06:27.345Z,100735.81
2022-10-28T13:09:23.047Z,100739.78
2022-10-28T13:12:09.326Z,100740.69
2022-10-28T13:14:59.356Z,100731.75
2022-10-28T13:18:12.429Z,100742.66
2022-10-28T13:21:02.200Z,100731.22
2022-10-28T13:23:57.960Z,100731.72
2022-10-28T13:26:29.880Z,100722.59
2022-10-28T13:29:00.756Z,100724.59
2022-10-28T13:31:41.505Z,100721.16
2022-10-28T13:34:12.704Z,100720.69
2022-10-28T13:36:44.417Z,100724.81
2022-10-28T13:39:28.012Z,100723.50
2022-10-28T13:42:18.934Z,100722.66
2022-10-28T13:44:58.740Z,100711.72
2022-10-28T13:47:26.766Z,100711.88
2022-10-28T13:50:06.920Z,100704.91
2022-10-28T13:52:41.132Z,100712.06
2022-10-28T13:55:48.156Z,100714.84
2022-10-28T13:58:25.053Z,100705.06
2022-10-28T14:00:54.008Z,100721.75
2022-10-28T14:03:27.331Z,100722.56
2022-10-28T14:05:59.478Z,100709.94
2022-10-28T14:08:44.875Z,100715.59
2022-10-28T14:11:22.987Z,100712.72
2022-10-28T14:13:55.555Z,100718.31
2022-10-28T14:16:33.638Z,100723.31
2022-10-28T14:19:10.908Z,100718.94
2022-10-28T14:21:41.132Z,100712.94
2022-10-28T14:24:13.096Z,100719.00
2022-10-28T14:27:06.046Z,100718.97
2022-10-28T14:30:10.084Z,100713.63
2022-10-28T14:32:38.260Z,100720.03
2022-10-28T14:35:38.996Z,100727.69
2022-10-28T14:38:37.847Z,100725.66
2022-10-28T14:41:34.689Z,100717.81
2022-10-28T14:44:24.550Z,100709.06
2022-10-28T14:47:10.900Z,100704.94
2022-10-28T14:49:40.550Z,100707.97
2022-10-28T14:52:16.473Z,100710.94
2022-10-28T14:54:50.219Z,100715.31
2022-10-28T14:57:19.499Z,100714.09
2022-10-28T14:59:50.853Z,100715.97
2022-10-28T15:02:23.555Z,100712.31
2022-10-28T15:05:14.848Z,100705.38
2022-10-28T15:07:43.770Z,100707.81
2022-10-28T15:10:30.014Z,100713.00
2022-10-28T15:13:00.264Z,100709.22
2022-10-28T15:15:52.420Z,100704.00
2022-10-28T15:18:23.557Z,100704.88
2022-10-28T15:21:09.117Z,100707.19
2022-10-28T15:23:37.163Z,100700.09
2022-10-28T15:26:14.353Z,100700.88
2022-10-28T15:28:43.448Z,100698.09
2022-10-28T15:31:11.792Z,100708.06
2022-10-28T15:33:42.074Z,100706.94
2022-10-28T15:36:23.163Z,100701.00
2022-10-28T15:39:06.001Z,100709.78
2022-10-28T15:41:43.386Z,100708.00
2022-10-28T15:44:36.830Z,100707.53
2022-10-28T15:47:24.019Z,100714.13
2022-10-28T15:50:02.021Z,100724.63
2022-10-28T15:53:15.795Z,100712.50
2022-10-28T15:58:55.389Z,100722.72
2022-10-28T16:01:40.988Z,100718.91
2022-10-28T16:04:17.830Z,100723.47
2022-10-28T16:06:52.110Z,100721.78
2022-10-28T16:09:36.742Z,100716.31
2022-10-28T16:12:25.347Z,100719.19
2022-10-28T16:15:01.515Z,100707.78
2022-10-28T16:17:33.903Z,100717.03
2022-10-28T16:20:18.928Z,100717.34
2022-10-28T16:22:48.058Z,100721.59
2022-10-28T16:25:21.619Z,100721.59
2022-10-28T16:27:51.402Z,100718.25
2022-10-28T16:30:19.694Z,100718.25
2022-10-28T16:32:49.634Z,100721.38
2022-10-28T16:35:20.260Z,100711.03
2022-10-28T16:37:54.761Z,100716.06
2022-10-28T16:40:50.255Z,100712.19
2022-10-28T16:43:20.162Z,100710.25
2022-10-28T16:49:40.839Z,100723.91
2022-10-28T16:52:20.390Z,100720.03
2022-10-28T16:54:49.316Z,100728.63
2022-10-28T16:57:19.436Z,100729.69
2022-10-28T16:59:48.416Z,100728.25
2022-10-28T17:02:30.283Z,100735.19
2022-10-28T17:04:59.390Z,100733.81
2022-10-28T17:11:14.105Z,100741.53
2022-10-28T17:13:42.445Z,100736.53
2022-10-28T17:16:10.630Z,100731.25
2022-10-28T17:18:38.944Z,100724.31
2022-10-28T17:21:07.078Z,100729.31
2022-10-28T17:23:35.686Z,100731.19
2022-10-28T17:26:03.734Z,100738.09
2022-10-28T17:28:33.293Z,100735.78
2022-10-28T17:31:03.928Z,100739.31
2022-10-28T17:33:32.557Z,100747.25
2022-10-28T17:36:05.909Z,100735.47
2022-10-28T17:38:34.489Z,100731.56
2022-10-28T17:41:02.612Z,100736.84
2022-10-28T17:47:22.219Z,100725.94
2022-10-28T17:49:50.544Z,100728.66
2022-10-28T17:52:18.562Z,100730.63
2022-10-28T17:55:05.504Z,100715.22
2022-10-28T17:57:48.834Z,100727.16
2022-10-28T18:00:35.096Z,100737.31
2022-10-28T18:03:18.244Z,100730.81
2022-10-28T18:09:37.379Z,100725.09
2022-10-28T18:12:05.826Z,100727.97
2022-10-28T18:14:33.986Z,100727.13
2022-10-28T18:17:02.234Z,100721.00
2022-10-28T18:19:30.337Z,100724.00
2022-10-28T18:21:58.612Z,100712.78
2022-10-28T18:24:26.719Z,100714.47
2022-10-28T18:26:55.121Z,100710.88
2022-10-28T18:29:23.436Z,100714.50
2022-10-28T18:31:51.676Z,100719.63
2022-10-28T18:34:19.741Z,100719.94
2022-10-28T18:36:47.992Z,100697.97
2022-10-28T18:39:16.019Z,100710.16
2022-10-28T18:41:44.252Z,100702.44
2022-10-28T18:44:14.156Z,100703.97
2022-10-28T18:46:42.709Z,100710.50
2022-10-28T18:49:10.907Z,100707.84
2022-10-28T18:51:39.185Z,100707.34
2022-10-28T18:54:07.320Z,100700.34
2022-10-28T18:56:35.394Z,100711.53
2022-10-28T18:59:04.661Z,100702.31
2022-10-28T19:01:33.592Z,100707.06
2022-10-28T19:04:03.466Z,100711.06
2022-10-28T19:06:33.246Z,100715.41
2022-10-28T19:09:04.396Z,100705.81
2022-10-28T19:11:34.937Z,100714.78
2022-10-28T19:14:06.193Z,100700.22
2022-10-28T19:16:36.757Z,100708.94
2022-10-28T19:19:05.865Z,100698.63
2022-10-28T19:21:34.486Z,100709.84
2022-10-28T19:24:06.417Z,100704.31
2022-10-28T19:26:34.620Z,100705.34
2022-10-28T19:29:06.681Z,100697.91
2022-10-28T19:31:36.547Z,100697.00
2022-10-28T19:34:04.617Z,100693.88
2022-10-28T19:36:33.811Z,100699.94
2022-10-28T19:39:03.167Z,100694.88
2022-10-28T19:41:32.648Z,100697.16
2022-10-28T19:44:02.338Z,100698.50
2022-10-28T19:46:34.309Z,100701.75
2022-10-28T19:49:06.698Z,100708.13
2022-10-28T19:51:40.622Z,100702.78
2022-10-28T19:54:17.786Z,100697.47
2022-10-28T19:56:48.325Z,100709.31
2022-10-28T19:59:16.337Z,100706.44
2022-10-28T20:01:44.695Z,100714.22
2022-10-28T20:04:12.894Z,100710.81
2022-10-28T20:06:41.933Z,100703.16
2022-10-28T20:09:10.054Z,100690.16
2022-10-28T20:11:41.045Z,100699.22
2022-10-28T20:14:11.430Z,100697.69
2022-10-28T20:16:42.072Z,100702.91
2022-10-28T20:19:10.117Z,100694.34
2022-10-28T20:21:39.220Z,100682.28
2022-10-28T20:24:08.021Z,100682.88
2022-10-28T20:26:38.444Z,100683.31
2022-10-28T20:29:06.844Z,100678.28
2022-10-28T20:31:37.916Z,100678.06
2022-10-28T20:34:07.217Z,100684.25
2022-10-28T20:36:40.683Z,100688.09
2022-10-28T20:39:21.037Z,100693.88
2022-10-28T20:41:58.599Z,100687.69
2022-10-28T20:44:27.028Z,100686.50
2022-10-28T20:46:55.047Z,100687.53
2022-10-28T20:49:23.263Z,100691.25
2022-10-28T20:51:52.455Z,100694.19
2022-10-28T20:54:21.924Z,100690.56
2022-10-28T20:56:50.237Z,100687.97
2022-10-28T20:59:18.574Z,100693.50
2022-10-28T21:01:49.637Z,100687.88
2022-10-28T21:04:17.902Z,100693.84
2022-10-28T21:06:45.955Z,100689.50
2022-10-28T21:09:14.146Z,100687.31
2022-10-28T21:11:44.543Z,100688.06
2022-10-28T21:14:12.732Z,100695.84
2022-10-28T21:16:40.895Z,100678.94
2022-10-28T21:19:09.068Z,100686.66
2022-10-28T21:21:37.065Z,100681.53
2022-10-28T21:24:08.439Z,100681.53
2022-10-28T21:26:36.653Z,100677.56
2022-10-28T21:29:04.948Z,100678.91
2022-10-28T21:31:37.460Z,100677.97
2022-10-28T21:34:08.254Z,100675.03
2022-10-28T21:36:36.757Z,100676.03
2022-10-28T21:39:10.236Z,100669.19
2022-10-28T21:41:38.309Z,100673.50
2022-10-28T21:44:06.605Z,100675.66
2022-10-28T21:46:35.855Z,100675.69
2022-10-28T21:49:04.094Z,100680.22
2022-10-28T21:51:32.177Z,100680.47
2022-10-28T21:54:03.107Z,100682.88
2022-10-28T21:56:31.101Z,100686.47
2022-10-28T21:59:00.780Z,100679.81
2022-10-28T22:01:28.910Z,100681.25
2022-10-28T22:03:57.106Z,100687.53
2022-10-28T22:06:25.465Z,100674.44
2022-10-28T22:08:55.119Z,100670.13
2022-10-28T22:11:24.245Z,100674.09
2022-10-28T22:14:03.939Z,100665.44
2022-10-28T22:16:34.396Z,100670.84
2022-10-28T22:19:05.850Z,100664.97
2022-10-28T22:21:37.459Z,100665.13
2022-10-28T22:24:06.754Z,100662.69
2022-10-28T22:26:35.092Z,100659.09
2022-10-28T22:29:05.919Z,100665.34
2022-10-28T22:31:34.210Z,100676.13
2022-10-28T22:34:02.448Z,100667.84
2022-10-28T22:36:30.449Z,100669.38
2022-10-28T22:38:58.811Z,100670.59
2022-10-28T22:41:28.846Z,100676.94
2022-10-28T22:44:01.876Z,100672.50
2022-10-28T22:46:33.628Z,100673.34
2022-10-28T22:49:01.625Z,100663.47
2022-10-28T22:51:29.877Z,100664.84
2022-10-28T22:53:58.179Z,100656.78
2022-10-28T22:56:26.958Z,100664.09
2022-10-28T22:58:57.514Z,100665.53
2022-10-28T23:01:27.085Z,100667.50
2022-10-28T23:03:55.911Z,100668.00
2022-10-28T23:06:26.296Z,100660.00
2022-10-28T23:08:54.620Z,100662.38
2022-10-28T23:11:23.568Z,100658.91
2022-10-28T23:13:53.306Z,100654.00
2022-10-28T23:16:23.280Z,100655.38
2022-10-28T23:18:51.554Z,100650.97
2022-10-28T23:21:23.406Z,100654.06
2022-10-28T23:23:59.138Z,100654.38
2022-10-28T23:26:28.864Z,100665.72
2022-10-28T23:28:59.432Z,100650.34
2022-10-28T23:31:27.871Z,100658.31
2022-10-28T23:33:56.281Z,100654.72
2022-10-28T23:36:24.231Z,100657.31
2022-10-28T23:38:52.281Z,100651.50
2022-10-28T23:41:20.541Z,100653.56
2022-10-28T23:43:48.850Z,100659.41
2022-10-28T23:46:17.393Z,100670.22
2022-10-28T23:48:45.846Z,100672.88
2022-10-28T23:51:18.735Z,100677.47
2022-10-28T23:53:47.050Z,100670.38
2022-10-28T23:56:15.037Z,100658.16
2022-10-28T23:58:43.044Z,100658.53
